Map

Track Data

SID SEASON NUMBER BASIN SUBBASIN NAME ISO_TIME NATURE LAT LON WMO_WIND WMO_PRES WMO_AGENCY TRACK_TYPE DIST2LAND LANDFALL IFLAG USA_AGENCY USA_ATCF_ID USA_LAT USA_LON USA_RECORD USA_STATUS USA_WIND USA_PRES USA_SSHS USA_R34_NE USA_R34_SE USA_R34_SW USA_R34_NW USA_R50_NE USA_R50_SE USA_R50_SW USA_R50_NW USA_R64_NE USA_R64_SE USA_R64_SW USA_R64_NW USA_POCI USA_ROCI USA_RMW USA_EYE TOKYO_LAT TOKYO_LON TOKYO_GRADE TOKYO_WIND TOKYO_PRES TOKYO_R50_DIR TOKYO_R50_LONG TOKYO_R50_SHORT TOKYO_R30_DIR TOKYO_R30_LONG TOKYO_R30_SHORT TOKYO_LAND CMA_LAT CMA_LON CMA_CAT CMA_WIND CMA_PRES HKO_LAT HKO_LON HKO_CAT HKO_WIND HKO_PRES NEWDELHI_LAT NEWDELHI_LON NEWDELHI_GRADE NEWDELHI_WIND NEWDELHI_PRES NEWDELHI_CI NEWDELHI_DP NEWDELHI_POCI REUNION_LAT REUNION_LON REUNION_TYPE REUNION_WIND REUNION_PRES REUNION_TNUM REUNION_CI REUNION_RMW REUNION_R34_NE REUNION_R34_SE REUNION_R34_SW REUNION_R34_NW REUNION_R50_NE REUNION_R50_SE REUNION_R50_SW REUNION_R50_NW REUNION_R64_NE REUNION_R64_SE REUNION_R64_SW REUNION_R64_NW BOM_LAT BOM_LON BOM_TYPE BOM_WIND BOM_PRES BOM_TNUM BOM_CI BOM_RMW BOM_R34_NE BOM_R34_SE BOM_R34_SW BOM_R34_NW BOM_R50_NE BOM_R50_SE BOM_R50_SW BOM_R50_NW BOM_R64_NE BOM_R64_SE BOM_R64_SW BOM_R64_NW BOM_ROCI BOM_POCI BOM_EYE BOM_POS_METHOD BOM_PRES_METHOD NADI_LAT NADI_LON NADI_CAT NADI_WIND NADI_PRES WELLINGTON_LAT WELLINGTON_LON WELLINGTON_WIND WELLINGTON_PRES DS824_LAT DS824_LON DS824_STAGE DS824_WIND DS824_PRES TD9636_LAT TD9636_LON TD9636_STAGE TD9636_WIND TD9636_PRES TD9635_LAT TD9635_LON TD9635_WIND TD9635_PRES TD9635_ROCI NEUMANN_LAT NEUMANN_LON NEUMANN_CLASS NEUMANN_WIND NEUMANN_PRES MLC_LAT MLC_LON MLC_CLASS MLC_WIND MLC_PRES USA_GUST BOM_GUST BOM_GUST_PER REUNION_GUST REUNION_GUST_PER USA_SEAHGT USA_SEARAD_NE USA_SEARAD_SE USA_SEARAD_SW USA_SEARAD_NW STORM_SPEED STORM_DIR
1933048S17041 1933 1 SI MM NOT_NAMED 1933-02-17 06:00:00 NR -17.1000 41.1000 reunion main 153 153 _____O________ -1 -17.1000 41.1000 99 9.90000 7 82
1933048S17041 1933 1 SI MM NOT_NAMED 1933-02-17 09:00:00 NR -17.0467 41.4844 main 183 183 _____P________ -1 -17.0467 41.4844 99 7 82
1933048S17041 1933 1 SI MM NOT_NAMED 1933-02-17 12:00:00 NR -16.9932 41.8665 main 216 189 _____P________ -1 -16.9932 41.8665 99 7 82
1933048S17041 1933 1 SI MM NOT_NAMED 1933-02-17 15:00:00 NR -16.9400 42.2444 main 192 173 _____P________ -1 -16.9400 42.2444 99 8 58
1933048S17041 1933 1 SI MM NOT_NAMED 1933-02-17 18:00:00 NR -16.5903 42.5529 main 171 164 _____P____O___ -1 -16.8878 42.6161 99 -15.4000 42.3000 4 8 43
1933048S17041 1933 1 SI MM NOT_NAMED 1933-02-17 21:00:00 NR -16.3575 42.8176 main 164 140 _____P____P___ -1 -16.8371 42.9795 99 -15.3984 42.4938 4 7 45
1933048S17041 1933 1 SI MM NOT_NAMED 1933-02-18 00:00:00 TS -16.0933 43.0788 main 140 122 _____P___OP___ -1 -16.7885 43.3326 99 -15.4000 43.2000 TC 65 -15.3974 42.7001 4 7 51
1933048S17041 1933 1 SI MM NOT_NAMED 1933-02-18 03:00:00 TS -15.9356 43.3529 main 115 87 _____P___PP___ -1 -16.7426 43.6734 99 -15.3976 43.5550 TC 65 -15.3977 42.9313 4 6 69
1933048S17041 1933 1 SI MM NOT_NAMED 1933-02-18 06:00:00 TS -15.8727 43.6818 reunion main 87 70 _____O___OO___ -1 -16.7000 44.0000 99 9.90000 -15.4000 43.9000 TC 65 -15.4000 43.2000 4 6 80
1933048S17041 1933 1 SI MM NOT_NAMED 1933-02-18 09:00:00 TS -15.8243 44.0153 main 70 56 _____P___PP___ -1 -16.6611 44.3110 99 -15.4075 44.2225 TC 65 -15.4043 43.5125 4 6 84
1933048S17041 1933 1 SI MM NOT_NAMED 1933-02-18 12:00:00 TS -15.8109 44.3193 main 56 54 _____P___OP___ -1 -16.6249 44.6078 99 -15.4000 44.5000 TC 65 -15.4078 43.8499 4 6 86
1933048S17041 1933 1 SI MM NOT_NAMED 1933-02-18 15:00:00 TS -15.7825 44.5958 main 54 39 _____P___PP___ -1 -16.5903 44.8924 99 -15.3499 44.7075 TC 65 -15.4074 44.1875 4 5 83
1933048S17041 1933 1 SI MM NOT_NAMED 1933-02-18 18:00:00 TS -15.7521 44.8556 main 30 30 _____P___OO___ -1 -16.5562 45.1667 99 -15.3000 44.9000 TC 65 -15.4000 44.5000 4 5 84
1933048S17041 1933 1 SI MM NOT_NAMED 1933-02-18 21:00:00 TS -15.7306 45.1096 main 33 33 _____P___PP___ -1 -16.5213 45.4327 99 -15.2925 45.1425 TC 65 -15.3779 44.7538 4 5 85
1933048S17041 1933 1 SI MM NOT_NAMED 1933-02-19 00:00:00 TS -15.7114 45.3574 main 30 22 _____P___OP___ -1 -16.4845 45.6923 99 -15.3000 45.4000 TC 65 -15.3497 44.9801 4 5 85
1933048S17041 1933 1 SI MM NOT_NAMED 1933-02-19 03:00:00 TS -15.6887 45.5987 main 22 22 _____P___PP___ -1 -16.4445 45.9474 99 -15.3000 45.6575 TC 65 -15.3217 45.1913 4 5 84
1933048S17041 1933 1 SI MM NOT_NAMED 1933-02-19 06:00:00 TS -15.6667 45.8333 reunion main 22 11 _____O___OO___ -1 -16.4000 46.2000 99 9.90000 -15.3000 45.9000 TC 65 -15.3000 45.4000 4 4 84
1933048S17041 1933 1 SI MM NOT_NAMED 1933-02-19 09:00:00 TS -15.6445 46.0628 main 22 10 _____P___PP___ -1 -16.3367 46.4480 99 -15.3000 46.1075 TC 65 -15.2969 45.6331 4 4 84
1933048S17041 1933 1 SI MM NOT_NAMED 1933-02-19 12:00:00 TS -15.6227 46.2851 main 10 0 _____P___OP___ -1 -16.2681 46.6903 99 -15.3000 46.3000 TC 65 -15.3000 45.8649 4 4 84
1933048S17041 1933 1 SI MM NOT_NAMED 1933-02-19 15:00:00 TS -15.6025 46.5090 main 0 0 _____P___PP___ -1 -16.1970 46.9301 99 -15.3075 46.5075 TC 65 -15.3031 46.0893 4 4 84
1933048S17041 1933 1 SI MM NOT_NAMED 1933-02-19 18:00:00 TS -15.5754 46.7235 main 0 0 _____P___OO___ -1 -16.1261 47.1705 99 -15.3000 46.7000 TC 65 -15.3000 46.3000 4 4 80
1933048S17041 1933 1 SI MM NOT_NAMED 1933-02-19 21:00:00 TS -15.5339 46.9114 main 0 0 _____P___PP___ -1 -16.0583 47.4145 99 -15.2574 46.8425 TC 65 -15.2861 46.4772 4 4 76
1933048S17041 1933 1 SI MM NOT_NAMED 1933-02-20 00:00:00 TS -15.4870 47.1026 main 10 0 _____P___OP___ -1 -15.9961 47.6654 99 -15.2000 47.0000 TC 65 -15.2647 46.6425 4 4 77
1933048S17041 1933 1 SI MM NOT_NAMED 1933-02-20 03:00:00 TS -15.4429 47.3242 main 0 0 _____P___PP___ -1 -15.9425 47.9262 99 -15.1500 47.2350 TC 65 -15.2361 46.8115 4 5 79
1933048S17041 1933 1 SI MM NOT_NAMED 1933-02-20 06:00:00 TS -15.4000 47.5667 reunion main 0 0 _____O___OO___ -1 -15.9000 48.2000 99 9.90000 -15.1000 47.5000 TC 65 -15.2000 47.0000 4 5 79
1933048S17041 1933 1 SI MM NOT_NAMED 1933-02-20 09:00:00 TS -15.3488 47.8412 main 0 0 _____P___PP___ -1 -15.8393 48.5451 99 -15.0500 47.7500 TC 65 -15.1572 47.2285 4 6 79
1933048S17041 1933 1 SI MM NOT_NAMED 1933-02-20 12:00:00 TS -15.2973 48.1287 main 0 0 _____P___OP___ -1 -15.7844 48.9087 99 -15.0000 48.0000 TC 65 -15.1075 47.4775 4 6 80
1933048S17041 1933 1 SI MM NOT_NAMED 1933-02-20 15:00:00 TS -15.2483 48.4221 main 0 0 _____P___PP___ -1 -15.7409 49.2786 99 -14.9500 48.2500 TC 65 -15.0541 47.7378 4 6 81
1933048S17041 1933 1 SI MM NOT_NAMED 1933-02-20 18:00:00 TS -15.2049 48.7142 main 0 0 _____P___OO___ -1 -15.7147 49.6427 99 -14.9000 48.5000 TC 65 -15.0000 48.0000 4 6 82
1933048S17041 1933 1 SI MM NOT_NAMED 1933-02-20 21:00:00 TS -15.1705 48.9950 main 0 0 _____P___PP___ -1 -15.7116 49.9890 99 -14.8500 48.7500 TC 65 -14.9499 48.2459 4 5 84
1933048S17041 1933 1 SI MM NOT_NAMED 1933-02-21 00:00:00 TS -15.1458 49.2659 main 0 0 _____P___OP___ -1 -15.7374 50.3053 99 -14.8000 49.0000 TC 65 -14.8998 48.4924 4 5 86
1933048S17041 1933 1 SI MM NOT_NAMED 1933-02-21 03:00:00 TS -15.1327 49.5216 main 0 0 _____P___PP___ -1 -15.7982 50.5797 99 -14.7499 49.2425 TC 65 -14.8499 48.7428 4 5 89
1933048S17041 1933 1 SI MM NOT_NAMED 1933-02-21 06:00:00 TS -15.1333 49.7667 reunion main 0 0 _____O___OO___ -1 -15.9000 50.8000 99 9.90000 -14.7000 49.5000 TC 65 -14.8000 49.0000 4 5 93
1933048S17041 1933 1 SI MM NOT_NAMED 1933-02-21 09:00:00 TS -15.1571 50.0008 main 0 0 _____P___PP___ -1 -16.0678 50.9306 99 -14.6575 49.8000 TC 65 -14.7459 49.2719 4 4 97
1933048S17041 1933 1 SI MM NOT_NAMED 1933-02-21 12:00:00 TS -15.1906 50.2196 main 0 0 _____P___OP___ -1 -16.2794 51.0089 99 -14.6000 50.1000 TC 65 -14.6925 49.5500 4 4 99
1933048S17041 1933 1 SI MM NOT_NAMED 1933-02-21 15:00:00 TS -15.2175 50.4099 main 0 0 _____P___PP___ -1 -16.5248 51.0441 99 -14.4849 50.3576 TC 65 -14.6428 49.8281 4 4 102
1933048S17041 1933 1 SI MM NOT_NAMED 1933-02-21 18:00:00 TS -15.2646 50.5819 main 10 10 _____P___OO___ -1 -16.7937 51.0456 99 -14.4000 50.6000 TC 65 -14.6000 50.1000 4 4 107
1933048S17041 1933 1 SI MM NOT_NAMED 1933-02-21 21:00:00 TS -15.3204 50.7643 main 32 32 _____P___PP___ -1 -17.0759 51.0226 99 -14.3825 50.8725 TC 65 -14.5029 50.3980 4 4 116
1933048S17041 1933 1 SI MM NOT_NAMED 1933-02-22 00:00:00 TS -15.4279 50.9223 main 42 42 _____P___OP___ -1 -17.3612 50.9843 99 -14.5000 51.1000 TC 65 -14.4227 50.6827 4 4 138
1933048S17041 1933 1 SI MM NOT_NAMED 1933-02-22 03:00:00 TS -15.6143 51.0396 main 58 58 _____P___PP___ -1 -17.6393 50.9403 99 -14.7975 51.2524 TC 65 -14.4061 50.9260 4 5 159
1933048S17041 1933 1 SI MM NOT_NAMED 1933-02-22 06:00:00 TS -15.8667 51.1000 reunion main 82 82 _____O___OO___ -1 -17.9000 50.9000 99 9.90000 -15.2000 51.3000 TC 65 -14.5000 51.1000 4 5 174
1933048S17041 1933 1 SI MM NOT_NAMED 1933-02-22 09:00:00 TS -16.1542 51.0980 main 96 96 _____P___PP___ -1 -18.1029 50.8953 99 -15.6000 51.2227 TC 65 -14.7599 51.1759 4 6 184
1933048S17041 1933 1 SI MM NOT_NAMED 1933-02-22 12:00:00 TS -16.4743 51.0566 main 111 102 _____P___OP___ -1 -18.2931 50.8873 99 -16.0000 51.1000 TC 65 -15.1299 51.1826 4 6 187
1933048S17041 1933 1 SI MM NOT_NAMED 1933-02-22 15:00:00 TS -16.7943 51.0204 main 123 123 _____P___PP___ -1 -18.4730 50.8783 99 -16.3500 51.0350 TC 65 -15.5599 51.1479 4 6 186
1933048S17041 1933 1 SI MM NOT_NAMED 1933-02-22 18:00:00 TS -17.1150 50.9902 main 132 132 _____P___OO___ -1 -18.6449 50.8706 99 -16.7000 51.0000 TC 65 -16.0000 51.1000 4 6 184
1933048S17041 1933 1 SI MM NOT_NAMED 1933-02-22 21:00:00 TS -17.4210 50.9764 main 144 144 _____P___PP___ -1 -18.8112 50.8666 99 -17.0850 50.9925 TC 65 -16.3669 51.0702 4 6 182
1933048S17041 1933 1 SI MM NOT_NAMED 1933-02-23 00:00:00 TS -17.7364 50.9680 main 158 158 _____P___OP___ -1 -18.9743 50.8686 99 -17.5000 51.0000 TC 65 -16.7350 51.0353 4 6 0
1933048S17041 1933 1 SI MM NOT_NAMED 1933-02-23 03:00:00 TS -18.0657 50.9573 main 164 164 _____P___PP___ -1 -19.1364 50.8789 99 -17.9500 50.9851 TC 65 -17.1106 51.0078 4 7 0
1933048S17041 1933 1 SI MM NOT_NAMED 1933-02-23 06:00:00 TS -18.4000 50.9667 reunion main 170 170 _____O___OO___ -1 -19.3000 50.9000 99 9.90000 -18.4000 51.0000 TC 65 -17.5000 51.0000 4 7 176
1933048S17041 1933 1 SI MM NOT_NAMED 1933-02-23 09:00:00 TS -18.7428 51.0054 main 177 177 _____P___PP___ -1 -19.4709 50.9110 99 -18.8225 51.0849 TC 65 -17.9350 51.0202 4 7 173
1933048S17041 1933 1 SI MM NOT_NAMED 1933-02-23 12:00:00 TS -19.0738 51.0638 main 204 204 _____P___OP___ -1 -19.6414 50.9291 99 -19.2000 51.2000 TC 65 -18.3800 51.0624 4 7 170
1933048S17041 1933 1 SI MM NOT_NAMED 1933-02-23 15:00:00 TS -19.3815 51.1271 main 214 214 _____P___PP___ -1 -19.8121 50.9580 99 -19.5225 51.3000 TC 65 -18.8100 51.1234 4 6 167
1933048S17041 1933 1 SI MM NOT_NAMED 1933-02-23 18:00:00 TS -19.6614 51.2005 main 233 233 _____P___OO___ -1 -19.9841 51.0016 99 -19.8000 51.4000 TC 65 -19.2000 51.2000 4 5 165
1933048S17041 1933 1 SI MM NOT_NAMED 1933-02-23 21:00:00 TS -19.9087 51.2767 main 251 251 _____P___PP___ -1 -20.1580 51.0638 99 -20.0500 51.4926 TC 65 -19.5181 51.2736 4 5 162
1933048S17041 1933 1 SI MM NOT_NAMED 1933-02-24 00:00:00 TS -20.1432 51.3704 main 270 270 _____P___OP___ -1 -20.3348 51.1483 99 -20.3000 51.6000 TC 65 -19.7949 51.3628 4 5 158
1933048S17041 1933 1 SI MM NOT_NAMED 1933-02-24 03:00:00 TS -20.3882 51.4882 main 285 285 _____P___PP___ -1 -20.5152 51.2591 99 -20.6000 51.7350 TC 65 -20.0493 51.4706 4 6 153
1933048S17041 1933 1 SI MM NOT_NAMED 1933-02-24 06:00:00 TS -20.6333 51.6333 reunion main 299 299 _____O___OO___ -1 -20.7000 51.4000 99 9.90000 -20.9000 51.9000 TC 65 -20.3000 51.6000 4 6 149
1933048S17041 1933 1 SI MM NOT_NAMED 1933-02-24 09:00:00 TS -20.8765 51.8036 main 328 328 _____P___PP___ -1 -20.8889 51.5688 99 -21.1575 52.0926 TC 65 -20.5831 51.7494 4 6 145
1933048S17041 1933 1 SI MM NOT_NAMED 1933-02-24 12:00:00 TS -21.1156 51.9959 main 331 311 _____P___OP___ -1 -21.0817 51.7679 99 -21.4000 52.3000 TC 65 -20.8650 51.9200 4 6 143
1933048S17041 1933 1 SI MM NOT_NAMED 1933-02-24 15:00:00 TS -21.3583 52.1998 main 312 293 _____P___PP___ -1 -21.2780 51.9938 99 -21.6575 52.5000 TC 65 -21.1394 52.1056 4 6 141
1933048S17041 1933 1 SI MM NOT_NAMED 1933-02-24 18:00:00 TS -21.5925 52.4143 main 295 277 _____P___OO___ -1 -21.4775 52.2429 99 -21.9000 52.7000 TC 65 -21.4000 52.3000 4 6 139
1933048S17041 1933 1 SI MM NOT_NAMED 1933-02-24 21:00:00 TS -21.8010 52.6143 main 280 263 _____P___PP___ -1 -21.6798 52.5117 99 -22.0923 52.8703 TC 65 -21.6309 52.4610 4 6 136
1933048S17041 1933 1 SI MM NOT_NAMED 1933-02-25 00:00:00 TS -22.0113 52.8434 main 267 248 _____P___OP___ -1 -21.8845 52.7965 99 -22.3000 53.1000 TC 65 -21.8494 52.6336 4 7 133
1933048S17041 1933 1 SI MM NOT_NAMED 1933-02-25 03:00:00 TS -22.2507 53.1343 main 253 231 _____P___PP___ -1 -22.0914 53.0938 99 -22.5926 53.4698 TC 65 -22.0682 52.8393 4 8 130
1933048S17041 1933 1 SI MM NOT_NAMED 1933-02-25 06:00:00 TS -22.5000 53.4667 reunion main 229 219 _____O___OO___ -1 -22.3000 53.4000 99 9.90000 -22.9000 53.9000 TC 65 -22.3000 53.1000 4 8 129
1933048S17041 1933 1 SI MM NOT_NAMED 1933-02-25 09:00:00 TS -22.7618 53.8274 main 228 214 _____P___PP___ -1 -22.5315 53.7247 99 -23.1724 54.3075 TC 65 -22.5813 53.4499 4 9 127
1933048S17041 1933 1 SI MM NOT_NAMED 1933-02-25 12:00:00 TS -23.0137 54.2065 main 221 221 _____P___OP___ -1 -22.7679 54.0656 99 -23.4000 54.7000 TC 65 -22.8731 53.8540 4 8 124
1933048S17041 1933 1 SI MM NOT_NAMED 1933-02-25 15:00:00 TS -23.2407 54.5845 main 224 224 _____P___PP___ -1 -23.0040 54.4147 99 -23.5649 55.0577 TC 65 -23.1532 54.2812 4 8 122
1933048S17041 1933 1 SI MM NOT_NAMED 1933-02-25 18:00:00 TS -23.4217 54.9142 main 234 234 _____P___OO___ -1 -23.2346 54.7642 99 -23.7000 55.4000 TC 65 -23.4000 54.7000 4 7 121
1933048S17041 1933 1 SI MM NOT_NAMED 1933-02-25 21:00:00 TS -23.5900 55.2259 main 249 247 _____P___PP___ -1 -23.4545 55.1057 99 -23.8452 55.7473 TC 65 -23.5980 55.0854 4 6 120
1933048S17041 1933 1 SI MM NOT_NAMED 1933-02-26 00:00:00 TS -23.7375 55.5182 main 257 257 _____P___OP___ -1 -23.6587 55.4311 99 -24.0000 56.1000 TC 65 -23.7550 55.4405 4 5 119
1933048S17041 1933 1 SI MM NOT_NAMED 1933-02-26 03:00:00 NR -23.8563 55.7464 main 279 279 _____P____P___ -1 -23.8422 55.7320 99 TC -23.8845 55.7752 4 5 120
1933048S17041 1933 1 SI MM NOT_NAMED 1933-02-26 06:00:00 NR -24.0000 56.0200 reunion main 293 293 _____O____O___ -1 -24.0000 56.0000 99 9.90000 -24.0000 56.1000 4 5 122
1933048S17041 1933 1 SI MM NOT_NAMED 1933-02-26 09:00:00 NR -24.1287 56.2288 main 308 308 _____P________ -1 -24.1287 56.2288 99 4 4 122
1933048S17041 1933 1 SI MM NOT_NAMED 1933-02-26 12:00:00 NR -24.2309 56.4213 main 323 323 _____P________ -1 -24.2309 56.4213 99 4 4 119
1933048S17041 1933 1 SI MM NOT_NAMED 1933-02-26 15:00:00 NR -24.3103 56.5825 main 339 339 _____P________ -1 -24.3103 56.5825 99 4 3 117
1933048S17041 1933 1 SI MM NOT_NAMED 1933-02-26 18:00:00 NR -24.3708 56.7175 main 353 353 _____P________ -1 -24.3708 56.7175 99 3 115
1933048S17041 1933 1 SI MM NOT_NAMED 1933-02-26 21:00:00 NR -24.4163 56.8315 main 357 357 _____P________ -1 -24.4163 56.8315 99 2 112
1933048S17041 1933 1 SI MM NOT_NAMED 1933-02-27 00:00:00 NR -24.4504 56.9297 main 371 371 _____P________ -1 -24.4504 56.9297 99 2 110
1933048S17041 1933 1 SI MM NOT_NAMED 1933-02-27 03:00:00 NR -24.4771 57.0175 main 374 374 _____P________ -1 -24.4771 57.0175 99 2 108
1933048S17041 1933 1 SI MM NOT_NAMED 1933-02-27 06:00:00 NR -24.5000 57.1000 reunion main 378 _____O________ -1 -24.5000 57.1000 99 9.90000 2 107

About IBTrACS Database

This database is a web-friendly format of International Best Track Archive for Climate Stewardship (IBTrACS), a global best track data archive curated by NOAA dating back to 1842.

Updated: 2021-12-06